sensor_id;sensor_type;location;lat;lon;timestamp;temperature;humidity
3198;DHT22;1611;49.394;11.136;2023-02-24T00:02:24;9.10;72.70
3198;DHT22;1611;49.394;11.136;2023-02-24T00:04:53;9.10;73.10
3198;DHT22;1611;49.394;11.136;2023-02-24T00:07:19;9.20;72.70
3198;DHT22;1611;49.394;11.136;2023-02-24T00:09:46;9.10;72.90
3198;DHT22;1611;49.394;11.136;2023-02-24T00:12:15;9.10;73.00
3198;DHT22;1611;49.394;11.136;2023-02-24T00:14:44;9.10;72.80
3198;DHT22;1611;49.394;11.136;2023-02-24T00:17:11;9.00;73.00
3198;DHT22;1611;49.394;11.136;2023-02-24T00:19:39;9.10;73.30
3198;DHT22;1611;49.394;11.136;2023-02-24T00:22:08;9.00;73.20
3198;DHT22;1611;49.394;11.136;2023-02-24T00:24:35;9.10;73.10
3198;DHT22;1611;49.394;11.136;2023-02-24T00:27:03;9.00;73.10
3198;DHT22;1611;49.394;11.136;2023-02-24T00:29:32;9.00;73.30
3198;DHT22;1611;49.394;11.136;2023-02-24T00:31:59;9.10;73.10
3198;DHT22;1611;49.394;11.136;2023-02-24T00:34:32;9.20;72.70
3198;DHT22;1611;49.394;11.136;2023-02-24T00:37:00;9.20;72.60
3198;DHT22;1611;49.394;11.136;2023-02-24T00:39:29;9.20;72.70
3198;DHT22;1611;49.394;11.136;2023-02-24T00:41:59;9.20;72.50
3198;DHT22;1611;49.394;11.136;2023-02-24T00:44:30;9.30;72.50
3198;DHT22;1611;49.394;11.136;2023-02-24T00:46:59;9.30;72.50
3198;DHT22;1611;49.394;11.136;2023-02-24T00:49:26;9.30;72.70
3198;DHT22;1611;49.394;11.136;2023-02-24T00:51:54;9.30;72.80
3198;DHT22;1611;49.394;11.136;2023-02-24T00:54:20;9.30;72.50
3198;DHT22;1611;49.394;11.136;2023-02-24T00:56:51;9.30;72.50
3198;DHT22;1611;49.394;11.136;2023-02-24T00:59:19;9.30;72.30
3198;DHT22;1611;49.394;11.136;2023-02-24T01:01:48;9.30;71.90
3198;DHT22;1611;49.394;11.136;2023-02-24T01:04:17;9.30;72.40
3198;DHT22;1611;49.394;11.136;2023-02-24T01:06:46;9.30;72.70
3198;DHT22;1611;49.394;11.136;2023-02-24T01:09:16;9.30;72.80
3198;DHT22;1611;49.394;11.136;2023-02-24T01:11:44;9.30;73.30
3198;DHT22;1611;49.394;11.136;2023-02-24T01:14:44;9.40;73.10
3198;DHT22;1611;49.394;11.136;2023-02-24T01:17:12;9.30;73.00
3198;DHT22;1611;49.394;11.136;2023-02-24T01:19:39;9.20;73.60
3198;DHT22;1611;49.394;11.136;2023-02-24T01:22:07;9.20;74.20
3198;DHT22;1611;49.394;11.136;2023-02-24T01:24:36;9.20;74.10
3198;DHT22;1611;49.394;11.136;2023-02-24T01:27:03;9.20;74.30
3198;DHT22;1611;49.394;11.136;2023-02-24T01:29:30;9.10;74.30
3198;DHT22;1611;49.394;11.136;2023-02-24T01:31:58;9.10;74.80
3198;DHT22;1611;49.394;11.136;2023-02-24T01:34:26;9.20;75.40
3198;DHT22;1611;49.394;11.136;2023-02-24T01:36:53;9.10;75.50
3198;DHT22;1611;49.394;11.136;2023-02-24T01:39:20;9.10;75.50
3198;DHT22;1611;49.394;11.136;2023-02-24T01:41:48;9.10;75.70
3198;DHT22;1611;49.394;11.136;2023-02-24T01:47:21;9.10;75.90
3198;DHT22;1611;49.394;11.136;2023-02-24T01:49:49;9.10;76.10
3198;DHT22;1611;49.394;11.136;2023-02-24T01:52:20;9.20;75.90
3198;DHT22;1611;49.394;11.136;2023-02-24T01:54:49;9.10;75.80
3198;DHT22;1611;49.394;11.136;2023-02-24T01:57:21;9.10;75.60
3198;DHT22;1611;49.394;11.136;2023-02-24T01:59:51;9.10;75.70
3198;DHT22;1611;49.394;11.136;2023-02-24T02:02:22;9.10;76.00
3198;DHT22;1611;49.394;11.136;2023-02-24T02:04:51;9.20;75.90
3198;DHT22;1611;49.394;11.136;2023-02-24T02:07:22;9.20;75.70
3198;DHT22;1611;49.394;11.136;2023-02-24T02:09:51;9.20;75.60
3198;DHT22;1611;49.394;11.136;2023-02-24T02:12:19;9.10;75.30
3198;DHT22;1611;49.394;11.136;2023-02-24T02:14:48;9.10;75.60
3198;DHT22;1611;49.394;11.136;2023-02-24T02:17:23;9.10;76.10
3198;DHT22;1611;49.394;11.136;2023-02-24T02:20:34;9.10;76.00
3198;DHT22;1611;49.394;11.136;2023-02-24T02:23:23;9.20;75.70
3198;DHT22;1611;49.394;11.136;2023-02-24T02:26:13;9.10;75.80
3198;DHT22;1611;49.394;11.136;2023-02-24T02:29:06;9.10;75.80
3198;DHT22;1611;49.394;11.136;2023-02-24T02:31:54;9.10;75.60
3198;DHT22;1611;49.394;11.136;2023-02-24T02:34:39;9.00;76.00
3198;DHT22;1611;49.394;11.136;2023-02-24T02:37:14;9.00;75.80
3198;DHT22;1611;49.394;11.136;2023-02-24T02:39:48;9.00;75.90
3198;DHT22;1611;49.394;11.136;2023-02-24T02:42:25;9.00;76.20
3198;DHT22;1611;49.394;11.136;2023-02-24T02:45:01;9.00;76.40
3198;DHT22;1611;49.394;11.136;2023-02-24T02:47:34;9.00;76.80
3198;DHT22;1611;49.394;11.136;2023-02-24T02:50:11;9.00;76.90
3198;DHT22;1611;49.394;11.136;2023-02-24T02:52:48;9.00;76.80
3198;DHT22;1611;49.394;11.136;2023-02-24T02:55:21;9.00;77.10
3198;DHT22;1611;49.394;11.136;2023-02-24T02:57:52;9.00;77.20
3198;DHT22;1611;49.394;11.136;2023-02-24T03:00:22;9.10;77.50
3198;DHT22;1611;49.394;11.136;2023-02-24T03:02:57;9.00;77.50
3198;DHT22;1611;49.394;11.136;2023-02-24T03:05:32;9.10;77.80
3198;DHT22;1611;49.394;11.136;2023-02-24T03:08:03;9.00;77.60
3198;DHT22;1611;49.394;11.136;2023-02-24T03:10:36;9.10;77.50
3198;DHT22;1611;49.394;11.136;2023-02-24T03:13:08;9.10;77.50
3198;DHT22;1611;49.394;11.136;2023-02-24T03:15:39;9.00;77.20
3198;DHT22;1611;49.394;11.136;2023-02-24T03:18:14;9.00;77.40
3198;DHT22;1611;49.394;11.136;2023-02-24T03:20:46;9.00;77.60
3198;DHT22;1611;49.394;11.136;2023-02-24T03:23:17;9.00;77.50
3198;DHT22;1611;49.394;11.136;2023-02-24T03:25:49;9.00;77.30
3198;DHT22;1611;49.394;11.136;2023-02-24T03:28:21;9.00;77.50
3198;DHT22;1611;49.394;11.136;2023-02-24T03:30:53;9.10;77.10
3198;DHT22;1611;49.394;11.136;2023-02-24T03:33:26;9.10;77.00
3198;DHT22;1611;49.394;11.136;2023-02-24T03:35:55;9.00;76.70
3198;DHT22;1611;49.394;11.136;2023-02-24T03:38:26;9.10;77.20
3198;DHT22;1611;49.394;11.136;2023-02-24T03:40:55;9.00;76.80
3198;DHT22;1611;49.394;11.136;2023-02-24T03:43:26;9.00;77.00
3198;DHT22;1611;49.394;11.136;2023-02-24T03:45:54;9.00;77.20
3198;DHT22;1611;49.394;11.136;2023-02-24T03:48:21;9.00;77.30
3198;DHT22;1611;49.394;11.136;2023-02-24T03:50:49;9.00;76.80
3198;DHT22;1611;49.394;11.136;2023-02-24T03:53:36;9.00;76.80
3198;DHT22;1611;49.394;11.136;2023-02-24T03:56:15;9.00;76.70
3198;DHT22;1611;49.394;11.136;2023-02-24T03:58:57;9.00;76.50
3198;DHT22;1611;49.394;11.136;2023-02-24T04:01:31;8.90;76.70
3198;DHT22;1611;49.394;11.136;2023-02-24T04:04:04;8.90;77.10
3198;DHT22;1611;49.394;11.136;2023-02-24T04:06:38;8.90;77.30
3198;DHT22;1611;49.394;11.136;2023-02-24T04:09:12;8.90;77.00
3198;DHT22;1611;49.394;11.136;2023-02-24T04:11:48;8.80;77.60
3198;DHT22;1611;49.394;11.136;2023-02-24T04:14:21;8.90;77.10
3198;DHT22;1611;49.394;11.136;2023-02-24T04:16:54;8.90;77.10
3198;DHT22;1611;49.394;11.136;2023-02-24T04:19:27;8.90;76.90
3198;DHT22;1611;49.394;11.136;2023-02-24T04:21:55;8.80;76.90
3198;DHT22;1611;49.394;11.136;2023-02-24T04:24:26;8.90;77.30
3198;DHT22;1611;49.394;11.136;2023-02-24T04:26:55;8.90;76.90
3198;DHT22;1611;49.394;11.136;2023-02-24T04:29:25;8.90;76.60
3198;DHT22;1611;49.394;11.136;2023-02-24T04:31:59;8.90;76.80
3198;DHT22;1611;49.394;11.136;2023-02-24T04:34:28;8.90;76.70
3198;DHT22;1611;49.394;11.136;2023-02-24T04:36:57;8.80;77.10
3198;DHT22;1611;49.394;11.136;2023-02-24T04:39:29;8.80;77.20
3198;DHT22;1611;49.394;11.136;2023-02-24T04:41:56;8.80;77.30
3198;DHT22;1611;49.394;11.136;2023-02-24T04:44:23;8.80;77.20
3198;DHT22;1611;49.394;11.136;2023-02-24T04:46:52;8.80;77.10
3198;DHT22;1611;49.394;11.136;2023-02-24T04:49:20;8.80;77.30
3198;DHT22;1611;49.394;11.136;2023-02-24T04:51:47;8.80;77.60
3198;DHT22;1611;49.394;11.136;2023-02-24T04:54:17;8.80;77.30
3198;DHT22;1611;49.394;11.136;2023-02-24T04:56:46;8.70;77.50
3198;DHT22;1611;49.394;11.136;2023-02-24T04:59:15;8.70;77.40
3198;DHT22;1611;49.394;11.136;2023-02-24T05:01:42;8.70;77.40
3198;DHT22;1611;49.394;11.136;2023-02-24T05:04:10;8.70;77.40
3198;DHT22;1611;49.394;11.136;2023-02-24T05:06:39;8.70;77.70
3198;DHT22;1611;49.394;11.136;2023-02-24T05:09:09;8.70;77.50
3198;DHT22;1611;49.394;11.136;2023-02-24T05:11:39;8.70;77.40
3198;DHT22;1611;49.394;11.136;2023-02-24T05:14:09;8.70;77.40
3198;DHT22;1611;49.394;11.136;2023-02-24T05:16:39;8.80;77.10
3198;DHT22;1611;49.394;11.136;2023-02-24T05:19:07;8.80;76.40
3198;DHT22;1611;49.394;11.136;2023-02-24T05:21:51;8.70;76.70
3198;DHT22;1611;49.394;11.136;2023-02-24T05:24:18;8.80;76.30
3198;DHT22;1611;49.394;11.136;2023-02-24T05:26:45;8.70;76.40
3198;DHT22;1611;49.394;11.136;2023-02-24T05:29:13;8.70;77.40
3198;DHT22;1611;49.394;11.136;2023-02-24T05:31:40;8.60;76.40
3198;DHT22;1611;49.394;11.136;2023-02-24T05:34:07;8.70;76.30
3198;DHT22;1611;49.394;11.136;2023-02-24T05:36:36;8.70;76.10
3198;DHT22;1611;49.394;11.136;2023-02-24T05:39:05;8.70;76.10
3198;DHT22;1611;49.394;11.136;2023-02-24T05:41:34;8.70;76.00
3198;DHT22;1611;49.394;11.136;2023-02-24T05:44:05;8.70;76.10
3198;DHT22;1611;49.394;11.136;2023-02-24T05:46:35;8.70;76.10
3198;DHT22;1611;49.394;11.136;2023-02-24T05:49:04;8.70;76.20
3198;DHT22;1611;49.394;11.136;2023-02-24T05:51:34;8.70;75.90
3198;DHT22;1611;49.394;11.136;2023-02-24T05:54:02;8.70;75.90
3198;DHT22;1611;49.394;11.136;2023-02-24T05:56:30;8.60;76.10
3198;DHT22;1611;49.394;11.136;2023-02-24T05:58:58;8.60;76.00
3198;DHT22;1611;49.394;11.136;2023-02-24T06:01:27;8.60;76.40
3198;DHT22;1611;49.394;11.136;2023-02-24T06:03:59;8.50;76.50
3198;DHT22;1611;49.394;11.136;2023-02-24T06:06:31;8.50;76.60
3198;DHT22;1611;49.394;11.136;2023-02-24T06:08:59;8.40;76.70
3198;DHT22;1611;49.394;11.136;2023-02-24T06:11:32;8.30;76.50
3198;DHT22;1611;49.394;11.136;2023-02-24T06:13:59;8.40;76.60
3198;DHT22;1611;49.394;11.136;2023-02-24T06:16:26;8.40;76.60
3198;DHT22;1611;49.394;11.136;2023-02-24T06:18:53;8.40;76.50
3198;DHT22;1611;49.394;11.136;2023-02-24T06:21:22;8.50;76.10
3198;DHT22;1611;49.394;11.136;2023-02-24T06:23:49;8.50;75.90
3198;DHT22;1611;49.394;11.136;2023-02-24T06:26:15;8.50;76.00
3198;DHT22;1611;49.394;11.136;2023-02-24T06:28:44;8.40;75.60
3198;DHT22;1611;49.394;11.136;2023-02-24T06:31:12;8.40;76.20
3198;DHT22;1611;49.394;11.136;2023-02-24T06:33:40;8.50;76.30
3198;DHT22;1611;49.394;11.136;2023-02-24T06:36:07;8.50;76.30
3198;DHT22;1611;49.394;11.136;2023-02-24T06:38:36;8.50;76.20
3198;DHT22;1611;49.394;11.136;2023-02-24T06:41:04;8.50;76.20
3198;DHT22;1611;49.394;11.136;2023-02-24T06:43:35;8.50;76.50
3198;DHT22;1611;49.394;11.136;2023-02-24T06:46:03;8.40;76.40
3198;DHT22;1611;49.394;11.136;2023-02-24T06:48:31;8.50;76.20
3198;DHT22;1611;49.394;11.136;2023-02-24T06:51:02;8.50;76.50
3198;DHT22;1611;49.394;11.136;2023-02-24T06:53:29;8.50;75.90
3198;DHT22;1611;49.394;11.136;2023-02-24T06:56:03;8.50;76.90
3198;DHT22;1611;49.394;11.136;2023-02-24T06:58:39;8.60;76.20
3198;DHT22;1611;49.394;11.136;2023-02-24T07:01:09;8.60;76.00
3198;DHT22;1611;49.394;11.136;2023-02-24T07:03:36;8.70;75.60
3198;DHT22;1611;49.394;11.136;2023-02-24T07:06:12;8.60;75.20
3198;DHT22;1611;49.394;11.136;2023-02-24T07:08:49;8.70;75.20
3198;DHT22;1611;49.394;11.136;2023-02-24T07:11:18;8.80;74.90
3198;DHT22;1611;49.394;11.136;2023-02-24T07:13:45;8.80;74.70
3198;DHT22;1611;49.394;11.136;2023-02-24T07:16:13;8.70;75.00
3198;DHT22;1611;49.394;11.136;2023-02-24T07:18:42;8.70;74.80
3198;DHT22;1611;49.394;11.136;2023-02-24T07:21:09;8.80;74.80
3198;DHT22;1611;49.394;11.136;2023-02-24T07:23:37;8.90;74.60
3198;DHT22;1611;49.394;11.136;2023-02-24T07:26:08;8.90;75.60
3198;DHT22;1611;49.394;11.136;2023-02-24T07:28:38;9.10;77.30
3198;DHT22;1611;49.394;11.136;2023-02-24T07:31:06;9.20;75.60
3198;DHT22;1611;49.394;11.136;2023-02-24T07:33:34;9.20;73.40
3198;DHT22;1611;49.394;11.136;2023-02-24T07:36:02;9.10;73.00
3198;DHT22;1611;49.394;11.136;2023-02-24T07:38:34;9.20;72.60
3198;DHT22;1611;49.394;11.136;2023-02-24T07:41:01;9.20;72.70
3198;DHT22;1611;49.394;11.136;2023-02-24T07:43:31;9.20;72.00
3198;DHT22;1611;49.394;11.136;2023-02-24T07:46:06;9.20;71.40
3198;DHT22;1611;49.394;11.136;2023-02-24T07:48:33;9.20;71.60
3198;DHT22;1611;49.394;11.136;2023-02-24T07:51:00;9.10;72.10
3198;DHT22;1611;49.394;11.136;2023-02-24T07:53:27;9.20;71.70
3198;DHT22;1611;49.394;11.136;2023-02-24T07:55:54;9.20;71.80
3198;DHT22;1611;49.394;11.136;2023-02-24T07:58:20;9.20;71.90
3198;DHT22;1611;49.394;11.136;2023-02-24T08:00:47;9.20;71.50
3198;DHT22;1611;49.394;11.136;2023-02-24T08:03:27;9.30;72.00
3198;DHT22;1611;49.394;11.136;2023-02-24T08:05:56;9.30;72.10
3198;DHT22;1611;49.394;11.136;2023-02-24T08:08:37;9.30;72.00
3198;DHT22;1611;49.394;11.136;2023-02-24T08:11:22;9.30;71.90
3198;DHT22;1611;49.394;11.136;2023-02-24T08:13:49;9.40;71.60
3198;DHT22;1611;49.394;11.136;2023-02-24T08:16:16;9.40;71.50
3198;DHT22;1611;49.394;11.136;2023-02-24T08:18:44;9.30;71.50
3198;DHT22;1611;49.394;11.136;2023-02-24T08:21:13;9.30;71.30
3198;DHT22;1611;49.394;11.136;2023-02-24T08:23:41;9.40;71.10
3198;DHT22;1611;49.394;11.136;2023-02-24T08:26:10;9.40;71.00
3198;DHT22;1611;49.394;11.136;2023-02-24T08:28:37;9.40;71.10
3198;DHT22;1611;49.394;11.136;2023-02-24T08:31:04;9.50;71.00
3198;DHT22;1611;49.394;11.136;2023-02-24T08:33:31;9.50;70.50
3198;DHT22;1611;49.394;11.136;2023-02-24T08:36:03;9.40;70.60
3198;DHT22;1611;49.394;11.136;2023-02-24T08:38:32;9.50;70.90
3198;DHT22;1611;49.394;11.136;2023-02-24T08:41:11;9.50;70.60
3198;DHT22;1611;49.394;11.136;2023-02-24T08:43:42;9.50;69.90
3198;DHT22;1611;49.394;11.136;2023-02-24T08:46:14;9.60;69.50
3198;DHT22;1611;49.394;11.136;2023-02-24T08:48:44;9.60;69.50
3198;DHT22;1611;49.394;11.136;2023-02-24T08:51:15;9.70;69.50
3198;DHT22;1611;49.394;11.136;2023-02-24T08:53:43;9.60;69.80
3198;DHT22;1611;49.394;11.136;2023-02-24T08:56:12;9.60;69.30
3198;DHT22;1611;49.394;11.136;2023-02-24T08:58:49;9.70;69.00
3198;DHT22;1611;49.394;11.136;2023-02-24T09:01:23;9.70;69.30
3198;DHT22;1611;49.394;11.136;2023-02-24T09:03:53;9.80;69.50
3198;DHT22;1611;49.394;11.136;2023-02-24T09:06:35;9.70;69.20
3198;DHT22;1611;49.394;11.136;2023-02-24T09:09:03;9.80;69.20
3198;DHT22;1611;49.394;11.136;2023-02-24T09:11:43;9.90;68.80
3198;DHT22;1611;49.394;11.136;2023-02-24T09:14:12;9.80;68.90
3198;DHT22;1611;49.394;11.136;2023-02-24T09:16:43;9.90;69.00
3198;DHT22;1611;49.394;11.136;2023-02-24T09:19:28;9.90;68.10
3198;DHT22;1611;49.394;11.136;2023-02-24T09:22:30;9.90;68.20
3198;DHT22;1611;49.394;11.136;2023-02-24T09:24:57;9.90;67.50
3198;DHT22;1611;49.394;11.136;2023-02-24T09:27:38;9.90;67.00
3198;DHT22;1611;49.394;11.136;2023-02-24T09:30:08;9.80;67.20
3198;DHT22;1611;49.394;11.136;2023-02-24T09:32:50;9.80;66.60
3198;DHT22;1611;49.394;11.136;2023-02-24T09:35:25;9.90;67.20
3198;DHT22;1611;49.394;11.136;2023-02-24T09:37:56;9.90;67.30
3198;DHT22;1611;49.394;11.136;2023-02-24T09:40:25;10.00;66.80
3198;DHT22;1611;49.394;11.136;2023-02-24T09:43:07;10.00;66.70
3198;DHT22;1611;49.394;11.136;2023-02-24T09:45:45;10.10;66.40
3198;DHT22;1611;49.394;11.136;2023-02-24T09:48:22;10.20;66.40
3198;DHT22;1611;49.394;11.136;2023-02-24T09:50:50;10.30;65.50
3198;DHT22;1611;49.394;11.136;2023-02-24T09:53:33;10.50;64.90
3198;DHT22;1611;49.394;11.136;2023-02-24T09:56:19;10.70;64.00
3198;DHT22;1611;49.394;11.136;2023-02-24T09:58:50;10.80;63.20
3198;DHT22;1611;49.394;11.136;2023-02-24T10:01:38;11.00;61.90
3198;DHT22;1611;49.394;11.136;2023-02-24T10:04:19;11.10;60.40
3198;DHT22;1611;49.394;11.136;2023-02-24T10:06:56;11.10;59.60
3198;DHT22;1611;49.394;11.136;2023-02-24T10:09:27;11.30;59.50
3198;DHT22;1611;49.394;11.136;2023-02-24T10:12:01;11.30;57.30
3198;DHT22;1611;49.394;11.136;2023-02-24T10:14:36;11.40;57.90
3198;DHT22;1611;49.394;11.136;2023-02-24T10:17:13;11.40;57.40
3198;DHT22;1611;49.394;11.136;2023-02-24T10:19:50;11.20;56.40
3198;DHT22;1611;49.394;11.136;2023-02-24T10:22:29;11.20;56.80
3198;DHT22;1611;49.394;11.136;2023-02-24T10:25:17;11.10;56.70
3198;DHT22;1611;49.394;11.136;2023-02-24T10:27:56;11.10;57.60
3198;DHT22;1611;49.394;11.136;2023-02-24T10:30:35;11.20;57.60
3198;DHT22;1611;49.394;11.136;2023-02-24T10:33:17;11.40;56.40
3198;DHT22;1611;49.394;11.136;2023-02-24T10:35:50;11.50;55.10
3198;DHT22;1611;49.394;11.136;2023-02-24T10:38:19;11.60;55.40
3198;DHT22;1611;49.394;11.136;2023-02-24T10:40:52;11.70;54.70
3198;DHT22;1611;49.394;11.136;2023-02-24T10:43:23;11.90;54.60
3198;DHT22;1611;49.394;11.136;2023-02-24T10:45:57;11.90;51.90
3198;DHT22;1611;49.394;11.136;2023-02-24T10:48:32;11.90;52.50
3198;DHT22;1611;49.394;11.136;2023-02-24T10:51:11;11.80;53.50
3198;DHT22;1611;49.394;11.136;2023-02-24T10:53:46;11.70;54.10
3198;DHT22;1611;49.394;11.136;2023-02-24T10:56:19;11.50;54.30
3198;DHT22;1611;49.394;11.136;2023-02-24T10:59:09;11.30;55.60
3198;DHT22;1611;49.394;11.136;2023-02-24T11:02:15;11.00;55.30
3198;DHT22;1611;49.394;11.136;2023-02-24T11:04:51;10.70;56.00
3198;DHT22;1611;49.394;11.136;2023-02-24T11:07:41;10.50;58.20
3198;DHT22;1611;49.394;11.136;2023-02-24T11:10:20;10.20;60.10
3198;DHT22;1611;49.394;11.136;2023-02-24T11:12:54;10.20;59.70
3198;DHT22;1611;49.394;11.136;2023-02-24T11:15:43;10.30;60.20
3198;DHT22;1611;49.394;11.136;2023-02-24T11:18:29;10.50;60.40
3198;DHT22;1611;49.394;11.136;2023-02-24T11:20:58;10.60;60.50
3198;DHT22;1611;49.394;11.136;2023-02-24T11:23:29;10.80;60.50
3198;DHT22;1611;49.394;11.136;2023-02-24T11:25:59;11.10;59.00
3198;DHT22;1611;49.394;11.136;2023-02-24T11:28:50;11.30;56.80
3198;DHT22;1611;49.394;11.136;2023-02-24T11:31:32;11.50;55.10
3198;DHT22;1611;49.394;11.136;2023-02-24T11:34:05;11.90;53.70
3198;DHT22;1611;49.394;11.136;2023-02-24T11:36:39;12.40;50.80
3198;DHT22;1611;49.394;11.136;2023-02-24T11:39:22;12.60;50.90
3198;DHT22;1611;49.394;11.136;2023-02-24T11:41:56;12.60;49.00
3198;DHT22;1611;49.394;11.136;2023-02-24T11:44:29;12.50;49.30
3198;DHT22;1611;49.394;11.136;2023-02-24T11:47:02;12.30;49.80
3198;DHT22;1611;49.394;11.136;2023-02-24T11:49:37;11.90;51.00
3198;DHT22;1611;49.394;11.136;2023-02-24T11:52:11;11.60;50.80
3198;DHT22;1611;49.394;11.136;2023-02-24T11:54:42;11.30;52.60
3198;DHT22;1611;49.394;11.136;2023-02-24T11:57:15;11.10;54.80
3198;DHT22;1611;49.394;11.136;2023-02-24T11:59:47;11.00;54.10
3198;DHT22;1611;49.394;11.136;2023-02-24T12:02:18;10.90;53.70
3198;DHT22;1611;49.394;11.136;2023-02-24T12:04:55;10.90;54.00
3198;DHT22;1611;49.394;11.136;2023-02-24T12:07:25;11.00;54.60
3198;DHT22;1611;49.394;11.136;2023-02-24T12:09:58;10.90;55.30
3198;DHT22;1611;49.394;11.136;2023-02-24T12:12:29;10.80;55.50
3198;DHT22;1611;49.394;11.136;2023-02-24T12:15:03;10.70;54.80
3198;DHT22;1611;49.394;11.136;2023-02-24T12:17:32;10.70;54.20
3198;DHT22;1611;49.394;11.136;2023-02-24T12:20:02;10.70;53.40
3198;DHT22;1611;49.394;11.136;2023-02-24T12:22:36;10.70;53.50
3198;DHT22;1611;49.394;11.136;2023-02-24T12:25:11;10.80;53.30
3198;DHT22;1611;49.394;11.136;2023-02-24T12:27:50;10.80;52.80
3198;DHT22;1611;49.394;11.136;2023-02-24T12:30:32;10.80;53.60
3198;DHT22;1611;49.394;11.136;2023-02-24T12:33:30;10.70;52.60
3198;DHT22;1611;49.394;11.136;2023-02-24T12:36:07;10.70;53.40
3198;DHT22;1611;49.394;11.136;2023-02-24T12:38:47;10.50;52.40
3198;DHT22;1611;49.394;11.136;2023-02-24T12:41:29;10.50;53.60
3198;DHT22;1611;49.394;11.136;2023-02-24T12:44:03;10.50;54.20
3198;DHT22;1611;49.394;11.136;2023-02-24T12:46:35;10.60;54.10
3198;DHT22;1611;49.394;11.136;2023-02-24T12:49:18;10.60;54.90
3198;DHT22;1611;49.394;11.136;2023-02-24T12:51:55;10.60;54.20
3198;DHT22;1611;49.394;11.136;2023-02-24T12:54:28;10.60;54.60
3198;DHT22;1611;49.394;11.136;2023-02-24T12:57:05;10.90;52.80
3198;DHT22;1611;49.394;11.136;2023-02-24T12:59:38;11.20;52.10
3198;DHT22;1611;49.394;11.136;2023-02-24T13:02:12;11.50;50.60
3198;DHT22;1611;49.394;11.136;2023-02-24T13:04:52;11.70;48.60
3198;DHT22;1611;49.394;11.136;2023-02-24T13:07:46;11.80;49.40
3198;DHT22;1611;49.394;11.136;2023-02-24T13:10:22;11.80;48.80
3198;DHT22;1611;49.394;11.136;2023-02-24T13:13:02;11.80;49.70
3198;DHT22;1611;49.394;11.136;2023-02-24T13:15:32;11.80;50.20
3198;DHT22;1611;49.394;11.136;2023-02-24T13:18:00;11.80;48.10
3198;DHT22;1611;49.394;11.136;2023-02-24T13:20:30;11.70;47.80
3198;DHT22;1611;49.394;11.136;2023-02-24T13:22:57;11.60;49.20
3198;DHT22;1611;49.394;11.136;2023-02-24T13:25:29;11.60;50.60
3198;DHT22;1611;49.394;11.136;2023-02-24T13:27:59;11.50;49.50
3198;DHT22;1611;49.394;11.136;2023-02-24T13:30:38;11.30;48.70
3198;DHT22;1611;49.394;11.136;2023-02-24T13:33:27;11.20;48.40
3198;DHT22;1611;49.394;11.136;2023-02-24T13:36:06;11.20;49.40
3198;DHT22;1611;49.394;11.136;2023-02-24T13:38:35;11.20;47.30
3198;DHT22;1611;49.394;11.136;2023-02-24T13:41:22;11.20;48.70
3198;DHT22;1611;49.394;11.136;2023-02-24T13:43:53;11.30;47.70
3198;DHT22;1611;49.394;11.136;2023-02-24T13:46:20;11.60;47.30
3198;DHT22;1611;49.394;11.136;2023-02-24T13:48:56;11.90;47.10
3198;DHT22;1611;49.394;11.136;2023-02-24T13:51:42;12.20;45.30
3198;DHT22;1611;49.394;11.136;2023-02-24T13:54:27;12.50;44.20
3198;DHT22;1611;49.394;11.136;2023-02-24T13:57:02;12.70;43.30
3198;DHT22;1611;49.394;11.136;2023-02-24T14:02:26;12.70;41.10
3198;DHT22;1611;49.394;11.136;2023-02-24T14:04:57;12.70;42.30
3198;DHT22;1611;49.394;11.136;2023-02-24T14:07:30;12.80;43.10
3198;DHT22;1611;49.394;11.136;2023-02-24T14:09:59;12.80;40.50
3198;DHT22;1611;49.394;11.136;2023-02-24T14:12:31;12.90;40.80
3198;DHT22;1611;49.394;11.136;2023-02-24T14:14:58;12.90;41.20
3198;DHT22;1611;49.394;11.136;2023-02-24T14:17:28;13.00;40.60
3198;DHT22;1611;49.394;11.136;2023-02-24T14:20:07;12.90;39.60
3198;DHT22;1611;49.394;11.136;2023-02-24T14:22:34;12.90;41.30
3198;DHT22;1611;49.394;11.136;2023-02-24T14:25:10;12.90;41.20
3198;DHT22;1611;49.394;11.136;2023-02-24T14:27:38;12.80;37.60
3198;DHT22;1611;49.394;11.136;2023-02-24T14:30:06;12.50;40.10
3198;DHT22;1611;49.394;11.136;2023-02-24T14:32:34;12.30;39.30
3198;DHT22;1611;49.394;11.136;2023-02-24T14:35:02;12.30;41.60
3198;DHT22;1611;49.394;11.136;2023-02-24T14:37:30;12.20;40.30
3198;DHT22;1611;49.394;11.136;2023-02-24T14:40:00;12.10;41.10
3198;DHT22;1611;49.394;11.136;2023-02-24T14:42:30;12.10;41.00
3198;DHT22;1611;49.394;11.136;2023-02-24T14:44:58;11.90;42.00
3198;DHT22;1611;49.394;11.136;2023-02-24T14:47:27;11.90;42.20
3198;DHT22;1611;49.394;11.136;2023-02-24T14:49:55;11.70;43.20
3198;DHT22;1611;49.394;11.136;2023-02-24T14:52:30;11.70;43.10
3198;DHT22;1611;49.394;11.136;2023-02-24T14:55:02;11.70;43.60
3198;DHT22;1611;49.394;11.136;2023-02-24T14:57:33;11.70;44.30
3198;DHT22;1611;49.394;11.136;2023-02-24T15:00:03;11.80;42.90
3198;DHT22;1611;49.394;11.136;2023-02-24T15:02:50;11.80;42.80
3198;DHT22;1611;49.394;11.136;2023-02-24T15:05:18;11.80;43.10
3198;DHT22;1611;49.394;11.136;2023-02-24T15:07:46;11.70;43.80
3198;DHT22;1611;49.394;11.136;2023-02-24T15:10:18;11.70;44.10
3198;DHT22;1611;49.394;11.136;2023-02-24T15:12:49;11.60;44.70
3198;DHT22;1611;49.394;11.136;2023-02-24T15:15:19;11.50;43.60
3198;DHT22;1611;49.394;11.136;2023-02-24T15:17:49;11.50;43.80
3198;DHT22;1611;49.394;11.136;2023-02-24T15:20:30;11.50;43.40
3198;DHT22;1611;49.394;11.136;2023-02-24T15:22:58;11.40;44.70
3198;DHT22;1611;49.394;11.136;2023-02-24T15:25:27;11.30;44.90
3198;DHT22;1611;49.394;11.136;2023-02-24T15:27:56;11.20;46.20
3198;DHT22;1611;49.394;11.136;2023-02-24T15:30:31;11.10;44.50
3198;DHT22;1611;49.394;11.136;2023-02-24T15:33:03;11.10;44.90
3198;DHT22;1611;49.394;11.136;2023-02-24T15:35:31;11.10;44.00
3198;DHT22;1611;49.394;11.136;2023-02-24T15:38:01;11.00;44.40
3198;DHT22;1611;49.394;11.136;2023-02-24T15:40:28;10.90;46.10
3198;DHT22;1611;49.394;11.136;2023-02-24T15:42:57;11.00;45.20
3198;DHT22;1611;49.394;11.136;2023-02-24T15:45:30;10.90;44.60
3198;DHT22;1611;49.394;11.136;2023-02-24T15:47:59;10.90;45.20
3198;DHT22;1611;49.394;11.136;2023-02-24T15:50:28;10.80;46.40
3198;DHT22;1611;49.394;11.136;2023-02-24T15:52:57;10.80;45.10
3198;DHT22;1611;49.394;11.136;2023-02-24T15:55:27;10.80;44.80
3198;DHT22;1611;49.394;11.136;2023-02-24T15:58:00;10.70;44.60
3198;DHT22;1611;49.394;11.136;2023-02-24T16:00:28;10.60;44.50
3198;DHT22;1611;49.394;11.136;2023-02-24T16:02:55;10.60;44.50
3198;DHT22;1611;49.394;11.136;2023-02-24T16:05:23;10.60;45.70
3198;DHT22;1611;49.394;11.136;2023-02-24T16:07:50;10.40;44.00
3198;DHT22;1611;49.394;11.136;2023-02-24T16:10:20;10.40;44.80
3198;DHT22;1611;49.394;11.136;2023-02-24T16:12:50;10.30;45.80
3198;DHT22;1611;49.394;11.136;2023-02-24T16:15:22;10.30;45.10
3198;DHT22;1611;49.394;11.136;2023-02-24T16:17:50;10.20;46.70
3198;DHT22;1611;49.394;11.136;2023-02-24T16:20:19;10.20;47.90
3198;DHT22;1611;49.394;11.136;2023-02-24T16:22:53;10.20;47.10
3198;DHT22;1611;49.394;11.136;2023-02-24T16:25:19;10.20;48.10
3198;DHT22;1611;49.394;11.136;2023-02-24T16:27:46;10.10;48.90
3198;DHT22;1611;49.394;11.136;2023-02-24T16:30:17;10.10;48.70
3198;DHT22;1611;49.394;11.136;2023-02-24T16:32:45;10.20;47.90
3198;DHT22;1611;49.394;11.136;2023-02-24T16:35:12;10.10;48.20